WFLO2: Webbers Falls Lock & Dam & Reservoir (L&D 16)

Data processed at Sun Aug 09 2020 23:31


All information presented herein is the property of the government of the United States of America and may be revised or deleted at any time without prior notice.
Dissemination of this information without the expressed written consent of the Public Affairs Office, Tulsa District U.S. Army Corps of Engineers is strictly prohibited.
These data are gathered electronically and, as presented, have not undergone any form of quality control. These data are not guaranteed to be valid or correct.
Go to home page.
Go to station list.
Go to home page.

Upstream stations:

Downstream station:
Previous Day
Next Day
Current Day
    
SHEF ID:       WFLO2     Webbers Falls LD16
STATION TYPE:  NAVIGATION LOCK
Navigation Pool:  Bottom =   487.00, Top =   490.00

               PRECIP ELEVATION   STORAGE   TW-ELEV    INFLOW   RELEASE  AIR-TEMP  WIND-DIRWIND-SPEED REL-HUMID SOLAR-RAD   VOLTAGE  BAT-LOAD
                   in        ft     ac-ft        ft       cfs       cfs         F       deg       mph         %      W/m2      volt      volt
              Ccp-Rev   Ccp-Rev   Ccp-Rev   Ccp-Rev  Rev-Regi  Rev-Regi   Ccp-Rev   Ccp-Rev   Ccp-Rev   Ccp-Rev   Ccp-Rev   Ccp-Rev   Ccp-Rev
(US/Central)
08/09 00:00      0.00    490.18    172283    460.80     23802     29150     77.38    149.00      4.00     86.25      0.00     13.22     12.97
08/09 01:00      0.00    490.18    172283    460.39     24470     24100     76.03    152.60      3.40     92.05      0.00     13.22     12.97
08/09 02:00      0.00    490.29    173618    460.38     23704     19800     74.95    151.10      2.40     96.64      0.00     13.22     12.97
08/09 03:00      0.00    490.30    173739    460.38     24983     19800     73.92    146.50      1.80     99.14      0.00     13.22     12.97
08/09 04:00      0.00    490.26    173254    460.45     25297     19800     73.31    149.80      3.10     99.44      0.00     13.22     12.97
08/09 05:00      0.00    490.33    174103    460.45     22949     19400     72.97    148.40      3.50     99.50      0.00     13.22     12.97
08/09 06:00      0.00    490.37    174588    460.43     23536     19800     72.97    156.40      3.60     99.38      0.00     13.22     12.97
08/09 07:00      0.00    490.40    174952    460.42     25297     19800     73.08    157.10      4.30     99.28      0.00     13.22     12.97
08/09 08:00      0.00    490.43    175316    460.42     24417     19800     73.98    164.70      5.60     96.26     90.90     13.22     12.97
08/09 09:00      0.00    490.45    175558    460.36     24123     19800     76.86    154.40      7.40     86.57    284.40     13.22     12.97
08/09 10:00      0.00    490.49    176044    460.39     24417     19400     79.27    145.50      8.90     79.13    479.60     13.22     12.81
08/09 11:00      0.00    490.52    176408    460.34     24710     19800     82.62    158.90      8.60     71.15    654.10     13.22     12.97
08/09 12:00      0.00    490.56    176893    460.35     23809     19800     86.58    176.50      4.80     60.71    790.00     13.22     12.97
08/09 13:00      0.00    490.60    177378    460.29     23664     19800     88.54    182.30      6.60     55.12    876.20     13.22     12.97
08/09 14:00      0.00    490.56    176893    460.41     24026     24100     89.40    182.20      8.50     52.12    830.10     13.22     12.97
08/09 15:00      0.00    490.53    176529    460.72     23428     28950     90.25    177.00      8.20     50.16    691.60     13.22     12.97
08/09 16:00      0.00    490.51    176286    460.77     23123     28950     90.88    174.50      7.60     47.80    645.70     13.22     12.97
08/09 17:00      0.00    490.47    175801    460.70     24093     28550     90.59    158.60      8.00     49.79    502.60     13.22     12.97
08/09 18:00      0.00    490.44    175437    460.71     23506     28550     90.37    152.90      8.50     49.58    467.10     13.22     12.97
08/09 19:00      0.00    490.40    174952    460.72     22626     28950     88.92    160.20      6.20     54.79    199.40     13.22     12.97
08/09 20:00      0.00    490.35    174345    460.74     22412     28950     85.78    161.20      4.00     66.48     63.30     13.22     12.97
08/09 21:00      0.00    490.30    173739    460.78     21905     28950     81.90    146.70      2.90     78.90      0.00     13.22     12.97
08/09 22:00      ----    490.24      ----    460.76      ----      ----     80.55    146.50      3.70     75.07      0.00     13.22     12.97
08/09 23:00      ----      ----      ----      ----      ----      ----      ----      ----      ----      ----      ----      ----      ----